Time;durP1;ratioP1;P1;durP2;ratioP2;P2;SDS_P1;SDS_P2;PMS_P1;PMS_P2;Temp;Humidity;BMP_temperature;BMP_pressure;BME280_temperature;BME280_humidity;BME280_pressure;Samples;Min_cycle;Max_cycle;Signal;HPM_P1;HPM_P2
2022/02/04 00:04:09;;;;;;;11.68;5.92;;;22.50;85.50;;;;;;1950958;71;21266;-81
2022/02/04 00:20:51;;;;;;;9.90;6.12;;;22.50;84.80;;;;;;1969289;71;21055;-83
2022/02/04 00:23:13;;;;;;;9.18;5.72;;;22.50;84.50;;;;;;1945591;72;21337;-81
2022/02/04 00:25:56;;;;;;;11.18;5.83;;;22.50;84.30;;;;;;1945825;73;21619;-81
2022/02/04 00:28:22;;;;;;;10.00;6.05;;;22.50;84.20;;;;;;1953733;71;21060;-81
2022/02/04 00:30:56;;;;;;;10.95;7.00;;;22.50;84.20;;;;;;1956891;72;21111;-81
2022/02/04 00:33:18;;;;;;;10.00;6.53;;;22.50;84.30;;;;;;1948863;72;21125;-81
2022/02/04 00:35:56;;;;;;;9.93;5.90;;;22.50;84.10;;;;;;1951220;71;21123;-81
2022/02/04 00:38:32;;;;;;;9.18;6.15;;;22.50;83.80;;;;;;1949997;72;21064;-82
2022/02/04 00:40:59;;;;;;;8.18;5.85;;;22.50;84.80;;;;;;1966444;71;21120;-82
2022/02/04 00:43:28;;;;;;;9.88;6.33;;;22.50;83.70;;;;;;1953532;72;21548;-80
2022/02/04 00:46:09;;;;;;;9.18;6.10;;;22.50;83.80;;;;;;1944040;72;21134;-80
2022/02/04 00:48:43;;;;;;;9.83;6.08;;;22.50;83.90;;;;;;1940083;72;21492;-80
2022/02/04 00:56:20;;;;;;;9.15;5.75;;;22.40;84.30;;;;;;1948134;72;21071;-81
2022/02/04 01:26:41;;;;;;;9.18;5.90;;;22.20;84.40;;;;;;1968989;71;21635;-82
2022/02/04 01:29:12;;;;;;;6.05;4.92;;;22.20;84.20;;;;;;1948257;71;21899;-82
2022/02/04 01:31:43;;;;;;;8.98;5.67;;;22.20;84.50;;;;;;1961480;72;21079;-82
2022/02/04 01:34:14;;;;;;;10.30;6.35;;;22.20;85.80;;;;;;1968738;71;21147;-82
2022/02/04 01:36:45;;;;;;;10.08;5.65;;;22.10;86.40;;;;;;1954065;71;21087;-81
2022/02/04 01:39:16;;;;;;;11.83;6.42;;;22.10;87.00;;;;;;1965393;72;21557;-81
2022/02/04 01:41:46;;;;;;;13.10;6.22;;;22.00;88.30;;;;;;1952328;72;21563;-82
2022/02/04 01:44:19;;;;;;;8.70;6.33;;;22.00;89.70;;;;;;1957715;71;21115;-81
2022/02/04 01:46:50;;;;;;;10.20;6.45;;;21.90;90.10;;;;;;1966243;71;21048;-83
2022/02/04 01:49:27;;;;;;;9.23;6.40;;;22.00;92.20;;;;;;1986895;71;21543;-81
2022/02/04 01:51:57;;;;;;;11.95;6.75;;;21.90;94.30;;;;;;1961357;71;21153;-83
2022/02/04 01:54:28;;;;;;;10.32;6.25;;;21.80;94.10;;;;;;1969093;72;21070;-82
2022/02/04 01:56:58;;;;;;;10.38;7.30;;;21.80;93.20;;;;;;1958089;71;21106;-82
2022/02/04 01:59:30;;;;;;;10.80;7.33;;;21.80;92.50;;;;;;1998792;71;21096;-82
2022/02/04 02:02:01;;;;;;;9.93;7.03;;;21.70;92.90;;;;;;1965516;71;21229;-82
2022/02/04 02:04:33;;;;;;;10.80;7.03;;;21.60;92.40;;;;;;1960044;71;21099;-82
2022/02/04 02:07:10;;;;;;;10.98;7.42;;;21.60;92.80;;;;;;1959663;71;21155;-83
2022/02/04 02:10:13;;;;;;;11.55;7.40;;;21.60;92.20;;;;;;1968753;71;21114;-81
2022/02/04 02:12:10;;;;;;;11.15;7.83;;;21.50;91.70;;;;;;1968843;71;21117;-82
2022/02/04 02:14:43;;;;;;;11.08;7.83;;;21.40;92.80;;;;;;1977913;71;21072;-80
2022/02/04 02:38:43;;;;;;;14.55;9.50;;;20.70;95.70;;;;;;1916247;73;21866;-81
2022/02/04 02:48:04;;;;;;;13.55;8.73;;;20.70;96.50;;;;;;1958711;72;21609;-80
2022/02/04 02:58:02;;;;;;;11.53;8.58;;;20.80;96.40;;;;;;1962304;72;21614;-80
2022/02/04 03:02:56;;;;;;;12.23;8.35;;;20.80;96.10;;;;;;1957681;72;21092;-82
2022/02/04 03:05:25;;;;;;;10.85;8.40;;;20.80;96.20;;;;;;1957949;71;21098;-81
2022/02/04 03:07:55;;;;;;;11.28;8.43;;;20.80;96.10;;;;;;1954980;72;21074;-81
2022/02/04 03:10:26;;;;;;;15.15;9.63;;;20.80;96.30;;;;;;1963080;72;21520;-81
2022/02/04 03:12:57;;;;;;;13.08;9.78;;;20.80;96.40;;;;;;1972320;72;21162;-81
2022/02/04 03:15:27;;;;;;;12.50;9.35;;;20.90;97.00;;;;;;1964843;72;21151;-81
2022/02/04 03:18:03;;;;;;;15.20;9.63;;;20.80;97.20;;;;;;1963781;72;21088;-81
2022/02/04 03:20:39;;;;;;;13.05;9.50;;;20.80;97.30;;;;;;1962451;72;21155;-81
2022/02/04 03:23:03;;;;;;;16.57;10.68;;;20.80;97.40;;;;;;1971619;71;21186;-81
2022/02/04 03:25:39;;;;;;;13.48;9.35;;;20.70;98.30;;;;;;1957845;72;21108;-80
2022/02/04 03:28:11;;;;;;;12.75;9.83;;;20.70;98.10;;;;;;1964685;72;21083;-81
2022/02/04 03:30:39;;;;;;;14.70;10.08;;;20.60;98.10;;;;;;1949975;72;21143;-81
2022/02/04 03:33:10;;;;;;;14.93;10.40;;;20.60;98.50;;;;;;1967033;72;21114;-80
2022/02/04 03:35:41;;;;;;;13.43;9.65;;;20.70;98.30;;;;;;1968269;72;21207;-80
2022/02/04 03:38:12;;;;;;;11.33;9.13;;;20.70;97.70;;;;;;1960387;72;21151;-82
2022/02/04 03:40:43;;;;;;;15.00;10.43;;;20.80;97.70;;;;;;1963952;71;21107;-80
2022/02/04 03:43:14;;;;;;;14.35;9.93;;;20.80;97.50;;;;;;1959424;72;21161;-81
2022/02/04 03:45:45;;;;;;;13.10;9.30;;;20.90;97.50;;;;;;1966292;72;21550;-82
2022/02/04 03:48:15;;;;;;;14.90;9.75;;;20.90;97.20;;;;;;1932033;73;21730;-81
2022/02/04 03:50:46;;;;;;;13.32;9.20;;;20.90;97.00;;;;;;1968676;71;21109;-80
2022/02/04 03:53:17;;;;;;;12.98;9.73;;;20.90;96.90;;;;;;1960469;71;21146;-80
2022/02/04 03:55:48;;;;;;;14.60;9.88;;;21.00;96.80;;;;;;1962963;71;21697;-81
2022/02/04 03:58:19;;;;;;;13.72;10.18;;;21.00;97.00;;;;;;1958778;71;21177;-80
2022/02/04 04:00:49;;;;;;;14.28;10.10;;;21.10;96.80;;;;;;1969399;72;21085;-80
2022/02/04 04:03:20;;;;;;;14.78;10.15;;;21.10;97.10;;;;;;1956597;72;21699;-80
2022/02/04 04:05:51;;;;;;;12.75;10.10;;;21.10;96.60;;;;;;1954273;72;21578;-80
2022/02/04 04:08:22;;;;;;;10.75;8.83;;;21.20;96.60;;;;;;1957374;72;21589;-81
2022/02/04 04:10:53;;;;;;;12.47;9.83;;;21.20;96.10;;;;;;1959794;72;21079;-81
2022/02/04 04:13:26;;;;;;;13.18;9.18;;;21.20;96.10;;;;;;1915525;73;21410;-81
2022/02/04 04:15:56;;;;;;;14.43;8.70;;;21.30;96.10;;;;;;1882917;74;21575;-82
2022/02/04 04:18:28;;;;;;;12.82;9.90;;;21.30;96.00;;;;;;1907367;74;21502;-81
2022/02/04 04:21:01;;;;;;;13.83;9.80;;;21.30;96.10;;;;;;1918980;73;21123;-80
2022/02/04 04:23:31;;;;;;;12.98;9.08;;;21.30;96.20;;;;;;1908763;73;21127;-82
2022/02/04 04:26:02;;;;;;;10.38;8.18;;;21.30;95.90;;;;;;1953245;71;21143;-81
2022/02/04 04:28:32;;;;;;;13.13;9.00;;;21.30;95.80;;;;;;1927673;73;21229;-81
2022/02/04 04:31:03;;;;;;;15.90;9.55;;;21.30;95.50;;;;;;1925568;73;21664;-82
2022/02/04 04:33:34;;;;;;;12.50;8.85;;;21.30;95.50;;;;;;1962223;71;21668;-81
2022/02/04 04:36:05;;;;;;;13.03;9.45;;;21.30;95.80;;;;;;1956080;71;21088;-81
2022/02/04 04:38:42;;;;;;;12.05;9.08;;;21.40;95.60;;;;;;1964824;72;21099;-81
2022/02/04 05:29:19;;;;;;;15.98;11.60;;;21.80;95.10;;;;;;1906795;74;21193;-82
2022/02/04 05:31:49;;;;;;;18.87;11.55;;;21.80;95.10;;;;;;1975936;72;21097;-81
2022/02/04 05:34:21;;;;;;;15.58;10.95;;;21.90;95.00;;;;;;1969875;71;21504;-83
2022/02/04 05:37:01;;;;;;;15.40;10.75;;;21.90;95.00;;;;;;1963381;71;21104;-82
2022/02/04 05:39:27;;;;;;;14.03;10.43;;;21.90;95.00;;;;;;1971807;71;21611;-81
2022/02/04 05:41:56;;;;;;;14.25;11.25;;;21.90;94.90;;;;;;1888517;75;21167;-81
2022/02/04 05:44:27;;;;;;;14.38;10.80;;;22.00;94.80;;;;;;1923168;74;21120;-82
2022/02/04 05:47:04;;;;;;;13.62;10.70;;;22.00;94.70;;;;;;1926928;74;21130;-82
2022/02/04 05:49:32;;;;;;;16.02;11.15;;;22.00;94.50;;;;;;1927839;73;21104;-83
2022/02/04 05:52:10;;;;;;;15.32;11.18;;;22.00;94.40;;;;;;1875195;76;21065;-83
2022/02/04 05:57:15;;;;;;;17.70;12.33;;;22.00;95.10;;;;;;1921263;73;21096;-83
2022/02/04 06:02:22;;;;;;;18.57;10.70;;;22.10;95.40;;;;;;1907030;75;21182;-83
2022/02/04 06:04:52;;;;;;;16.65;11.08;;;22.00;94.80;;;;;;1875456;76;21146;-83
2022/02/04 06:14:55;;;;;;;16.00;10.88;;;22.10;94.30;;;;;;1972385;71;21614;-83
2022/02/04 06:22:25;;;;;;;15.28;10.13;;;22.00;93.80;;;;;;1919164;73;21208;-83
2022/02/04 06:24:56;;;;;;;14.13;11.65;;;22.10;93.40;;;;;;1917263;73;21112;-83
2022/02/04 06:27:28;;;;;;;14.87;10.82;;;22.10;93.80;;;;;;1870027;76;21135;-84
2022/02/04 06:29:59;;;;;;;14.30;10.88;;;22.10;94.10;;;;;;1972633;71;21112;-85
2022/02/04 06:32:30;;;;;;;14.23;10.82;;;22.10;94.30;;;;;;1966375;71;21532;-84
2022/02/04 06:35:02;;;;;;;16.85;11.38;;;22.10;93.90;;;;;;1964869;71;21165;-85
2022/02/04 06:37:34;;;;;;;13.85;10.72;;;22.10;93.80;;;;;;1976751;71;21261;-85
2022/02/04 06:40:06;;;;;;;13.05;10.08;;;22.10;94.00;;;;;;1960609;72;21188;-85
2022/02/04 06:42:37;;;;;;;12.75;9.85;;;22.20;93.80;;;;;;1956099;73;21106;-85
2022/02/04 06:45:09;;;;;;;17.67;10.78;;;22.10;93.00;;;;;;1962691;72;21578;-85
2022/02/04 06:47:41;;;;;;;13.32;10.10;;;22.20;92.90;;;;;;1963742;71;21110;-84
2022/02/04 06:50:11;;;;;;;14.75;9.35;;;22.20;93.40;;;;;;1952151;73;21143;-85
2022/02/04 06:52:43;;;;;;;14.53;10.53;;;22.10;92.30;;;;;;1947121;73;21187;-85
2022/02/04 06:55:15;;;;;;;15.55;10.48;;;22.10;92.30;;;;;;1945079;73;21134;-84
2022/02/04 06:57:47;;;;;;;17.17;10.98;;;22.10;92.50;;;;;;1920802;74;21166;-85
2022/02/04 07:00:21;;;;;;;15.83;10.55;;;22.10;92.90;;;;;;1902435;75;21119;-84
2022/02/04 07:02:52;;;;;;;19.00;12.20;;;22.20;93.00;;;;;;1914471;74;21084;-85
2022/02/04 07:05:24;;;;;;;16.40;11.38;;;22.20;93.60;;;;;;1917421;75;21583;-85
2022/02/04 07:08:10;;;;;;;15.53;12.18;;;22.20;93.40;;;;;;1973351;71;21564;-85
2022/02/04 07:10:42;;;;;;;18.73;12.53;;;22.20;93.90;;;;;;1931669;73;21119;-84
2022/02/04 07:13:16;;;;;;;17.73;13.62;;;22.30;93.90;;;;;;1944851;73;21613;-84
2022/02/04 07:19:45;;;;;;;16.70;13.25;;;22.30;93.80;;;;;;1975793;72;21121;-81
2022/02/04 07:20:35;;;;;;;17.67;13.03;;;22.30;94.70;;;;;;1971331;72;21052;-81
2022/02/04 07:23:05;;;;;;;20.95;14.53;;;22.30;94.60;;;;;;1966099;71;21091;-82
2022/02/04 07:25:36;;;;;;;19.60;14.33;;;22.20;94.50;;;;;;1970942;71;21173;-82
2022/02/04 07:28:07;;;;;;;19.40;14.33;;;22.20;95.50;;;;;;1967490;71;21163;-82
2022/02/04 07:30:40;;;;;;;21.65;14.90;;;22.20;96.10;;;;;;1964964;72;21175;-82
2022/02/04 07:41:00;;;;;;;18.40;15.28;;;22.10;96.80;;;;;;1955847;73;21040;-82
2022/02/04 07:43:19;;;;;;;25.52;16.87;;;22.10;96.60;;;;;;1957320;73;21928;-83
2022/02/04 07:45:50;;;;;;;18.52;15.08;;;22.10;96.50;;;;;;1973483;71;21107;-83
2022/02/04 07:48:21;;;;;;;20.43;15.43;;;22.10;96.60;;;;;;1963562;71;21078;-82
2022/02/04 07:50:52;;;;;;;21.45;16.42;;;22.10;96.50;;;;;;1952245;73;21142;-82
2022/02/04 07:53:30;;;;;;;19.60;15.50;;;22.10;96.70;;;;;;1951018;73;21173;-83
2022/02/04 07:55:55;;;;;;;18.73;13.90;;;22.10;96.80;;;;;;1957270;73;21860;-82
2022/02/04 07:58:26;;;;;;;18.92;14.65;;;22.10;96.20;;;;;;1956558;73;21119;-84
2022/02/04 08:00:59;;;;;;;18.32;14.68;;;22.10;95.80;;;;;;1956636;73;21118;-83
2022/02/04 08:06:08;;;;;;;21.25;14.95;;;22.20;96.20;;;;;;1966789;72;21098;-82
2022/02/04 08:08:44;;;;;;;21.20;15.98;;;22.30;95.90;;;;;;1969235;72;21140;-83
2022/02/04 08:12:10;;;;;;;19.05;14.45;;;22.30;95.90;;;;;;1920171;74;21236;-83
2022/02/04 08:16:48;;;;;;;19.00;13.93;;;22.40;95.50;;;;;;1959855;73;20243;-83
2022/02/04 08:21:52;;;;;;;18.75;13.45;;;22.50;95.30;;;;;;1961215;72;21405;-81
2022/02/04 08:29:46;;;;;;;18.90;14.95;;;22.60;95.40;;;;;;1952003;73;21123;-82
2022/02/04 08:37:36;;;;;;;19.25;15.18;;;22.70;95.00;;;;;;1959491;72;21118;-81
2022/02/04 08:54:58;;;;;;;17.57;14.15;;;22.80;94.50;;;;;;1962235;71;21165;-82
2022/02/04 09:00:08;;;;;;;15.90;13.03;;;22.90;94.60;;;;;;1971605;71;21182;-83
2022/02/04 09:02:35;;;;;;;21.48;15.95;;;22.90;94.40;;;;;;1962325;71;21124;-83
2022/02/04 09:04:59;;;;;;;20.57;14.78;;;22.90;94.30;;;;;;1971648;71;21046;-83
2022/02/04 09:07:47;;;;;;;20.55;16.75;;;22.90;94.20;;;;;;1970334;71;21048;-83
2022/02/04 09:10:11;;;;;;;30.52;25.00;;;22.90;94.20;;;;;;1958855;72;21158;-83
2022/02/04 09:20:33;;;;;;;18.50;14.35;;;23.00;93.90;;;;;;1959477;73;21097;-82
2022/02/04 09:22:47;;;;;;;23.10;15.45;;;23.00;93.70;;;;;;1958165;73;21174;-83
2022/02/04 09:25:17;;;;;;;20.35;15.08;;;23.00;93.80;;;;;;1966799;72;21100;-82
2022/02/04 09:27:48;;;;;;;22.00;15.25;;;23.10;93.80;;;;;;1951368;72;21116;-83
2022/02/04 09:30:21;;;;;;;22.65;15.68;;;23.00;93.80;;;;;;1948560;73;21198;-82
2022/02/04 09:32:53;;;;;;;24.15;16.60;;;23.00;93.80;;;;;;1948335;73;21201;-82
2022/02/04 09:35:25;;;;;;;29.95;18.25;;;23.10;93.90;;;;;;1951971;73;21118;-82
2022/02/04 09:37:57;;;;;;;27.35;19.90;;;23.10;93.90;;;;;;1940007;74;21122;-82
2022/02/04 09:40:27;;;;;;;26.97;16.62;;;23.10;94.30;;;;;;1939956;74;21063;-82
2022/02/04 09:42:58;;;;;;;26.27;20.15;;;23.10;94.30;;;;;;1939844;74;21236;-83
2022/02/04 09:45:31;;;;;;;28.30;20.55;;;23.10;94.20;;;;;;1941777;72;21152;-84
2022/02/04 09:48:04;;;;;;;28.35;19.52;;;23.10;94.40;;;;;;1941804;73;21125;-83
2022/02/04 09:50:41;;;;;;;25.62;17.92;;;23.10;94.40;;;;;;1965850;72;21164;-82
2022/02/04 10:11:53;;;;;;;27.37;18.02;;;23.10;93.80;;;;;;2007208;71;21088;-84
2022/02/04 10:13:58;;;;;;;141.30;127.38;;;23.10;93.90;;;;;;1917365;74;21140;-84
2022/02/04 10:16:33;;;;;;;161.45;145.17;;;23.20;93.80;;;;;;1917992;74;21115;-84
2022/02/04 10:18:48;;;;;;;121.50;108.83;;;23.20;93.70;;;;;;1975466;72;21196;-86
2022/02/04 10:21:12;;;;;;;150.55;135.65;;;23.20;93.80;;;;;;1979351;72;21088;-87
2022/02/04 10:23:45;;;;;;;297.75;269.52;;;23.20;93.60;;;;;;2000263;71;21041;-85
2022/02/04 10:26:16;;;;;;;248.87;226.25;;;23.20;93.50;;;;;;1956318;72;21053;-84
2022/02/04 10:28:48;;;;;;;204.32;185.10;;;23.10;93.60;;;;;;1995938;71;21582;-83
2022/02/04 10:31:20;;;;;;;199.53;180.03;;;23.10;93.60;;;;;;1993295;71;21680;-85
2022/02/04 10:33:55;;;;;;;232.77;210.63;;;23.10;93.50;;;;;;1996514;71;21068;-85
2022/02/04 10:36:28;;;;;;;198.90;179.30;;;23.10;93.60;;;;;;2007839;71;21119;-85
2022/02/04 10:38:59;;;;;;;225.13;203.18;;;23.10;93.80;;;;;;2009677;71;21143;-85
2022/02/04 10:41:39;;;;;;;171.43;153.97;;;23.10;93.60;;;;;;1988543;71;21232;-84
2022/02/04 10:44:17;;;;;;;157.45;140.35;;;23.10;93.80;;;;;;1962853;71;21076;-84
2022/02/04 10:46:40;;;;;;;84.62;70.52;;;23.10;93.70;;;;;;1968066;71;21653;-84
2022/02/04 10:52:09;;;;;;;41.70;29.67;;;23.00;93.70;;;;;;1893959;75;22336;-84
2022/02/04 10:59:59;;;;;;;40.50;30.57;;;23.00;94.40;;;;;;1884076;74;21152;-84
2022/02/04 11:02:11;;;;;;;34.25;26.30;;;23.00;94.70;;;;;;1900387;75;21138;-84
2022/02/04 11:36:26;;;;;;;32.60;21.52;;;22.70;94.70;;;;;;1961152;72;21237;-83
2022/02/04 11:48:22;;;;;;;33.85;22.85;;;22.70;95.20;;;;;;1957999;73;21446;-85
2022/02/04 11:53:09;;;;;;;30.20;21.70;;;22.70;95.30;;;;;;1963646;72;21518;-84
2022/02/04 11:55:39;;;;;;;36.10;22.93;;;22.70;95.30;;;;;;1956250;72;21150;-84
2022/02/04 11:58:10;;;;;;;30.40;23.00;;;22.70;95.00;;;;;;1969721;72;21186;-84
2022/02/04 12:00:42;;;;;;;30.70;23.25;;;22.60;94.70;;;;;;1971698;72;21674;-83
2022/02/04 12:03:20;;;;;;;33.63;25.15;;;22.60;94.70;;;;;;1958871;72;21113;-85
2022/02/04 12:05:50;;;;;;;40.50;29.42;;;22.60;95.10;;;;;;1975180;72;21060;-85
2022/02/04 12:08:24;;;;;;;46.25;31.55;;;22.60;95.20;;;;;;1972402;72;21660;-84
2022/02/04 12:10:57;;;;;;;42.62;31.40;;;22.60;95.10;;;;;;1979634;71;21097;-83
2022/02/04 12:13:29;;;;;;;42.78;33.30;;;22.60;95.10;;;;;;1954666;73;21118;-84
2022/02/04 12:16:07;;;;;;;39.73;29.77;;;22.60;95.30;;;;;;1953618;72;21156;-84
2022/02/04 12:18:44;;;;;;;38.53;26.77;;;22.60;95.10;;;;;;1966829;72;21144;-83
2022/02/04 12:21:07;;;;;;;40.10;26.93;;;22.60;95.10;;;;;;1967462;73;21126;-83
2022/02/04 12:23:46;;;;;;;40.15;26.60;;;22.60;95.20;;;;;;1970429;72;21064;-84
2022/02/04 12:26:12;;;;;;;35.65;25.45;;;22.60;95.50;;;;;;1973219;71;21091;-83
2022/02/04 12:28:45;;;;;;;36.23;24.72;;;22.60;95.60;;;;;;1934997;74;21669;-84
2022/02/04 12:31:20;;;;;;;34.15;24.50;;;22.60;95.70;;;;;;1943215;72;21131;-84
2022/02/04 12:33:53;;;;;;;43.28;28.52;;;22.60;95.70;;;;;;1973512;72;21052;-84
2022/02/04 12:36:26;;;;;;;33.40;24.43;;;22.60;95.80;;;;;;1976339;72;21195;-85
2022/02/04 12:38:59;;;;;;;36.63;26.55;;;22.60;96.30;;;;;;1971245;72;21653;-83
2022/02/04 12:41:33;;;;;;;37.80;27.50;;;22.60;96.30;;;;;;1955868;73;21087;-83
2022/02/04 12:44:06;;;;;;;32.30;23.73;;;22.60;96.40;;;;;;1973876;71;21131;-83
2022/02/04 12:46:39;;;;;;;38.38;24.98;;;22.50;96.30;;;;;;1982929;71;21692;-83
2022/02/04 12:49:12;;;;;;;34.67;25.40;;;22.50;96.50;;;;;;1974848;72;21158;-82
2022/02/04 12:54:18;;;;;;;42.35;28.77;;;22.50;97.00;;;;;;1960972;72;21118;-83
2022/02/04 12:57:25;;;;;;;35.30;26.45;;;22.50;97.20;;;;;;1936922;74;21185;-83
2022/02/04 12:59:41;;;;;;;40.67;29.18;;;22.40;97.40;;;;;;1858885;76;21926;-83
2022/02/04 13:02:08;;;;;;;38.88;28.98;;;22.40;97.30;;;;;;1896476;73;21103;-84
2022/02/04 13:09:51;;;;;;;37.33;26.93;;;22.30;97.50;;;;;;1883876;75;21128;-83
2022/02/04 13:12:08;;;;;;;44.33;28.32;;;22.30;97.70;;;;;;1886493;74;21586;-83
2022/02/04 13:14:39;;;;;;;37.80;26.62;;;22.30;97.60;;;;;;1903777;74;21135;-82
2022/02/04 13:17:10;;;;;;;38.17;25.57;;;22.30;97.60;;;;;;1923337;74;21179;-83
2022/02/04 13:19:40;;;;;;;38.60;26.75;;;22.30;97.60;;;;;;1916339;73;21159;-84
2022/02/04 13:22:14;;;;;;;34.03;25.60;;;22.30;97.60;;;;;;1956841;72;21091;-83
2022/02/04 13:24:43;;;;;;;36.38;25.32;;;22.30;97.60;;;;;;1947781;73;21587;-83
2022/02/04 13:27:16;;;;;;;35.60;26.07;;;22.20;97.70;;;;;;1922783;74;21182;-82
2022/02/04 13:29:46;;;;;;;35.17;25.85;;;22.20;97.80;;;;;;1910885;74;21206;-82
2022/02/04 13:32:20;;;;;;;33.60;25.12;;;22.20;97.80;;;;;;1921986;73;21605;-82
2022/02/04 13:34:50;;;;;;;40.20;25.80;;;22.30;98.10;;;;;;1864287;75;21558;-82
2022/02/04 13:37:24;;;;;;;40.25;26.02;;;22.30;98.10;;;;;;1905805;74;21208;-84
2022/02/04 13:40:02;;;;;;;39.40;26.27;;;22.30;98.00;;;;;;1960903;72;21147;-83
2022/02/04 13:42:39;;;;;;;41.77;27.10;;;22.30;97.90;;;;;;1965093;72;21118;-83
2022/02/04 13:45:10;;;;;;;43.00;26.35;;;22.30;97.90;;;;;;1978101;72;21127;-82
2022/02/04 13:47:42;;;;;;;46.40;26.97;;;22.30;98.00;;;;;;1951680;73;21104;-83
2022/02/04 13:52:55;;;;;;;40.65;27.32;;;22.30;97.80;;;;;;1962751;72;21158;-83
2022/02/04 13:57:55;;;;;;;34.40;26.45;;;22.30;97.80;;;;;;1963567;72;21176;-83
2022/02/04 14:01:08;;;;;;;42.20;28.07;;;22.30;97.80;;;;;;1962851;73;21092;-84
2022/02/04 14:02:56;;;;;;;42.70;28.85;;;22.30;97.80;;;;;;1964603;72;21122;-84
2022/02/04 14:05:27;;;;;;;46.53;29.98;;;22.30;97.80;;;;;;1963122;72;21150;-83
2022/02/04 14:08:00;;;;;;;51.50;28.75;;;22.30;97.70;;;;;;1962653;72;21040;-84
2022/02/04 14:10:45;;;;;;;40.03;27.48;;;22.30;97.50;;;;;;1944657;72;21158;-85
2022/02/04 14:13:06;;;;;;;50.03;28.27;;;22.30;97.40;;;;;;1932246;72;21168;-84
2022/02/04 14:15:39;;;;;;;39.58;26.12;;;22.40;97.50;;;;;;1969244;72;21076;-83
2022/02/04 14:18:13;;;;;;;37.15;28.05;;;22.40;97.80;;;;;;1972669;72;21111;-84
2022/02/04 14:20:44;;;;;;;37.65;26.07;;;22.40;97.10;;;;;;1904183;74;21134;-83
2022/02/04 14:23:16;;;;;;;36.95;24.80;;;22.40;96.80;;;;;;1887807;74;21229;-83
2022/02/04 14:26:02;;;;;;;37.13;25.30;;;22.40;96.60;;;;;;1906103;74;21193;-84
2022/02/04 14:28:31;;;;;;;35.00;23.95;;;22.40;96.40;;;;;;1922487;73;21186;-84
2022/02/04 14:31:03;;;;;;;39.33;24.00;;;22.40;96.30;;;;;;1861154;75;21598;-83
2022/02/04 14:52:15;;;;;;;31.27;20.40;;;22.50;94.80;;;;;;1892729;75;21060;-83
2022/02/04 14:54:05;;;;;;;30.25;21.45;;;22.60;94.70;;;;;;1890425;75;21170;-82
2022/02/04 14:59:45;;;;;;;36.15;20.92;;;22.60;94.40;;;;;;1898905;74;21538;-84
2022/02/04 15:01:36;;;;;;;34.10;21.23;;;22.60;94.40;;;;;;1891054;75;21079;-85
2022/02/04 15:06:37;;;;;;;34.43;21.07;;;22.60;94.20;;;;;;1920690;74;21551;-84
2022/02/04 15:09:10;;;;;;;33.67;21.52;;;22.70;93.90;;;;;;1924008;74;21145;-83
2022/02/04 15:11:44;;;;;;;30.60;20.57;;;22.60;93.90;;;;;;1916094;74;21074;-83
2022/02/04 15:14:18;;;;;;;34.60;21.25;;;22.60;93.90;;;;;;1961741;72;21111;-84
2022/02/04 15:16:48;;;;;;;32.30;20.02;;;22.60;93.90;;;;;;1969232;71;21282;-85
2022/02/04 15:19:18;;;;;;;27.30;18.65;;;22.70;93.90;;;;;;1957864;73;21116;-84
2022/02/04 15:21:53;;;;;;;24.27;18.20;;;22.70;93.70;;;;;;1966574;72;21123;-83
2022/02/04 15:24:22;;;;;;;25.08;17.20;;;22.60;93.50;;;;;;1965219;72;21172;-83
2022/02/04 15:26:53;;;;;;;20.90;15.55;;;22.60;93.30;;;;;;1957986;71;21139;-83
2022/02/04 15:29:24;;;;;;;23.35;15.45;;;22.60;93.10;;;;;;1952744;72;21091;-83
2022/02/04 15:31:58;;;;;;;22.60;14.55;;;22.60;92.70;;;;;;1953418;71;21083;-82
2022/02/04 15:34:27;;;;;;;19.80;13.08;;;22.60;92.80;;;;;;1965914;71;21220;-83
2022/02/04 15:36:58;;;;;;;19.23;13.20;;;22.60;92.80;;;;;;1869980;76;21115;-84
2022/02/04 15:39:30;;;;;;;22.02;13.03;;;22.60;92.70;;;;;;1964922;72;21052;-82
2022/02/04 15:42:07;;;;;;;17.82;11.73;;;22.60;92.60;;;;;;1962539;72;21213;-83
2022/02/04 15:44:39;;;;;;;17.10;11.45;;;22.60;92.60;;;;;;1961189;72;21173;-85
2022/02/04 15:52:38;;;;;;;16.60;10.40;;;22.50;91.90;;;;;;1956645;71;21587;-84
2022/02/04 16:04:54;;;;;;;12.40;6.97;;;22.40;91.30;;;;;;1952707;72;21156;-84
2022/02/04 16:07:26;;;;;;;15.00;6.53;;;22.40;91.20;;;;;;1966626;71;21130;-82
2022/02/04 16:10:05;;;;;;;9.65;5.85;;;22.40;90.90;;;;;;1961497;72;21136;-85
2022/02/04 16:12:49;;;;;;;11.12;5.67;;;22.40;90.90;;;;;;1958390;72;21619;-85
2022/02/04 16:15:20;;;;;;;11.08;5.72;;;22.40;90.70;;;;;;1957642;72;21071;-82
2022/02/04 16:17:38;;;;;;;8.60;5.55;;;22.40;90.80;;;;;;1959864;72;21092;-83
2022/02/04 16:20:16;;;;;;;9.83;5.00;;;22.40;90.70;;;;;;1968800;72;21407;-83
2022/02/04 16:22:58;;;;;;;10.08;5.15;;;22.30;90.60;;;;;;1935207;72;21725;-84
2022/02/04 16:25:19;;;;;;;7.72;5.28;;;22.30;90.50;;;;;;1955353;71;21131;-83
2022/02/04 16:30:14;;;;;;;8.13;4.50;;;22.30;90.10;;;;;;1952960;72;21650;-84
2022/02/04 16:32:44;;;;;;;7.50;4.47;;;22.30;90.10;;;;;;1966871;72;21126;-83
2022/02/04 16:35:15;;;;;;;6.87;4.33;;;22.30;90.00;;;;;;1955213;72;21052;-82
2022/02/04 16:37:51;;;;;;;10.50;5.03;;;22.30;90.30;;;;;;1951079;71;21180;-83
2022/02/04 16:40:19;;;;;;;9.18;4.70;;;22.20;90.30;;;;;;1953019;72;21744;-83
2022/02/04 16:42:50;;;;;;;9.70;4.47;;;22.20;90.40;;;;;;1958352;71;21147;-83
2022/02/04 16:45:21;;;;;;;7.42;4.60;;;22.20;90.50;;;;;;1959334;73;21138;-83
2022/02/04 16:47:52;;;;;;;7.67;5.00;;;22.20;90.50;;;;;;1958403;72;21054;-82
2022/02/04 16:50:24;;;;;;;6.55;4.53;;;22.20;90.60;;;;;;1954196;72;21113;-83
2022/02/04 16:52:56;;;;;;;9.50;4.62;;;22.20;90.60;;;;;;1956612;72;21123;-84
2022/02/04 16:55:26;;;;;;;7.90;4.08;;;22.10;90.70;;;;;;1962688;72;21163;-84
2022/02/04 16:57:57;;;;;;;8.95;3.90;;;22.10;90.60;;;;;;1930115;74;21162;-84
2022/02/04 17:00:29;;;;;;;4.72;3.33;;;22.10;90.20;;;;;;1925822;74;21207;-83
2022/02/04 17:03:06;;;;;;;6.05;3.77;;;22.00;90.00;;;;;;1923599;74;21675;-83
2022/02/04 17:08:10;;;;;;;6.62;3.42;;;22.00;88.90;;;;;;1917918;74;21134;-83
2022/02/04 17:10:42;;;;;;;6.72;3.90;;;22.00;89.50;;;;;;1928167;73;21148;-83
2022/02/04 17:13:12;;;;;;;7.42;3.58;;;22.00;89.60;;;;;;1878887;74;21096;-83
2022/02/04 17:15:43;;;;;;;8.93;3.75;;;22.00;89.60;;;;;;1876697;75;21185;-83
2022/02/04 17:18:13;;;;;;;7.78;4.25;;;21.90;89.60;;;;;;1880960;74;21110;-84
2022/02/04 17:20:47;;;;;;;5.40;3.40;;;21.90;89.30;;;;;;1900656;74;21335;-84
2022/02/04 17:23:27;;;;;;;7.25;3.55;;;21.80;89.10;;;;;;1898037;74;21153;-85
2022/02/04 17:25:50;;;;;;;4.50;3.12;;;21.80;89.00;;;;;;1915218;74;21147;-85
2022/02/04 17:28:21;;;;;;;8.10;3.30;;;21.80;88.10;;;;;;1865349;75;21229;-84
2022/02/04 17:30:52;;;;;;;5.35;2.67;;;21.80;88.10;;;;;;1854990;76;21090;-83
2022/02/04 17:33:24;;;;;;;11.00;2.62;;;21.70;87.70;;;;;;1915119;73;21134;-83
2022/02/04 17:35:56;;;;;;;4.60;2.80;;;21.70;86.80;;;;;;1885541;74;21167;-84
2022/02/04 17:38:29;;;;;;;7.42;2.90;;;21.70;87.20;;;;;;1886535;75;21142;-84
2022/02/04 17:41:01;;;;;;;11.38;3.27;;;21.70;86.90;;;;;;1889141;74;21578;-84
2022/02/04 17:43:33;;;;;;;4.60;3.02;;;21.70;87.00;;;;;;1962236;71;21780;-84
2022/02/04 17:46:05;;;;;;;5.40;2.87;;;21.70;87.30;;;;;;1961271;71;21648;-84
2022/02/04 17:48:46;;;;;;;4.15;2.90;;;21.70;88.20;;;;;;1955730;72;21508;-84
2022/02/04 17:56:26;;;;;;;3.67;2.50;;;21.60;87.10;;;;;;1956198;71;21625;-84
2022/02/04 17:58:59;;;;;;;4.47;2.90;;;21.60;87.00;;;;;;1958719;72;21072;-83
2022/02/04 18:08:49;;;;;;;4.17;2.60;;;21.50;86.50;;;;;;1955660;72;21801;-82
2022/02/04 18:11:20;;;;;;;5.75;2.62;;;21.50;85.90;;;;;;1959719;72;21120;-85
2022/02/04 18:13:51;;;;;;;5.00;2.55;;;21.50;86.40;;;;;;1958567;72;21567;-84
2022/02/04 18:16:22;;;;;;;7.60;2.65;;;21.50;86.60;;;;;;1946361;72;21609;-83
2022/02/04 18:18:53;;;;;;;4.67;2.47;;;21.50;86.30;;;;;;1887452;75;21678;-82
2022/02/04 18:21:23;;;;;;;6.05;2.90;;;21.40;86.50;;;;;;1924666;74;21155;-83
2022/02/04 18:23:54;;;;;;;3.75;2.62;;;21.40;86.10;;;;;;1916550;74;21222;-85
2022/02/04 18:26:24;;;;;;;4.08;2.58;;;21.40;86.00;;;;;;1968820;72;21064;-83
2022/02/04 18:28:55;;;;;;;3.80;2.20;;;21.40;85.60;;;;;;1961193;73;21816;-85
2022/02/04 18:31:28;;;;;;;3.35;2.05;;;21.40;85.70;;;;;;1960139;72;21123;-82
2022/02/04 18:33:58;;;;;;;3.50;2.42;;;21.30;85.70;;;;;;1898790;74;21189;-82
2022/02/04 18:36:30;;;;;;;3.98;2.20;;;21.30;85.70;;;;;;1905934;74;21139;-83
2022/02/04 18:44:09;;;;;;;5.70;2.52;;;21.30;85.70;;;;;;1926636;74;21657;-84
2022/02/04 18:49:24;;;;;;;2.70;2.10;;;21.30;85.90;;;;;;1967586;73;21074;-83